sensor_id;sensor_type;location;lat;lon;timestamp;P1;durP1;ratioP1;P2;durP2;ratioP2
28296;SDS011;62078;49.366;8.172;2022-10-16T00:00:31;2.50;;;0.90;;
28296;SDS011;62078;49.366;8.172;2022-10-16T00:02:57;2.92;;;0.80;;
28296;SDS011;62078;49.366;8.172;2022-10-16T00:05:23;4.10;;;1.02;;
28296;SDS011;62078;49.366;8.172;2022-10-16T00:07:48;2.55;;;0.77;;
28296;SDS011;62078;49.366;8.172;2022-10-16T00:10:14;2.10;;;0.70;;
28296;SDS011;62078;49.366;8.172;2022-10-16T00:12:40;2.45;;;0.75;;
28296;SDS011;62078;49.366;8.172;2022-10-16T00:15:06;3.00;;;1.00;;
28296;SDS011;62078;49.366;8.172;2022-10-16T00:17:32;3.75;;;0.80;;
28296;SDS011;62078;49.366;8.172;2022-10-16T00:19:57;1.85;;;0.80;;
28296;SDS011;62078;49.366;8.172;2022-10-16T00:22:23;1.90;;;0.70;;
28296;SDS011;62078;49.366;8.172;2022-10-16T00:24:49;2.17;;;0.70;;
28296;SDS011;62078;49.366;8.172;2022-10-16T00:27:15;2.53;;;0.70;;
28296;SDS011;62078;49.366;8.172;2022-10-16T00:29:41;1.85;;;0.73;;
28296;SDS011;62078;49.366;8.172;2022-10-16T00:32:07;4.80;;;1.10;;
28296;SDS011;62078;49.366;8.172;2022-10-16T00:34:33;2.75;;;0.85;;
28296;SDS011;62078;49.366;8.172;2022-10-16T00:36:59;1.80;;;0.70;;
28296;SDS011;62078;49.366;8.172;2022-10-16T00:39:25;3.42;;;0.95;;
28296;SDS011;62078;49.366;8.172;2022-10-16T00:41:50;1.88;;;0.80;;
28296;SDS011;62078;49.366;8.172;2022-10-16T00:47:59;1.63;;;0.55;;
28296;SDS011;62078;49.366;8.172;2022-10-16T00:50:29;2.80;;;1.00;;
28296;SDS011;62078;49.366;8.172;2022-10-16T00:52:56;1.48;;;0.60;;
28296;SDS011;62078;49.366;8.172;2022-10-16T00:55:23;2.13;;;0.70;;
28296;SDS011;62078;49.366;8.172;2022-10-16T00:57:50;2.78;;;1.00;;
28296;SDS011;62078;49.366;8.172;2022-10-16T01:00:22;3.35;;;0.82;;
28296;SDS011;62078;49.366;8.172;2022-10-16T01:02:53;2.28;;;0.95;;
28296;SDS011;62078;49.366;8.172;2022-10-16T01:05:21;2.78;;;0.55;;
28296;SDS011;62078;49.366;8.172;2022-10-16T01:08:06;2.33;;;0.65;;
28296;SDS011;62078;49.366;8.172;2022-10-16T01:10:41;2.58;;;0.70;;
28296;SDS011;62078;49.366;8.172;2022-10-16T01:13:41;3.13;;;0.80;;
28296;SDS011;62078;49.366;8.172;2022-10-16T01:16:13;1.60;;;0.73;;
28296;SDS011;62078;49.366;8.172;2022-10-16T01:18:58;3.53;;;0.80;;
28296;SDS011;62078;49.366;8.172;2022-10-16T01:21:50;2.05;;;1.00;;
28296;SDS011;62078;49.366;8.172;2022-10-16T01:24:31;5.90;;;1.10;;
28296;SDS011;62078;49.366;8.172;2022-10-16T01:32:34;1.85;;;0.70;;
28296;SDS011;62078;49.366;8.172;2022-10-16T01:35:05;1.90;;;0.80;;
28296;SDS011;62078;49.366;8.172;2022-10-16T01:40:05;2.13;;;0.82;;
28296;SDS011;62078;49.366;8.172;2022-10-16T01:42:35;1.67;;;0.70;;
28296;SDS011;62078;49.366;8.172;2022-10-16T01:45:04;1.65;;;0.60;;
28296;SDS011;62078;49.366;8.172;2022-10-16T01:47:32;2.10;;;0.60;;
28296;SDS011;62078;49.366;8.172;2022-10-16T01:50:02;1.95;;;0.80;;
28296;SDS011;62078;49.366;8.172;2022-10-16T01:52:30;2.95;;;0.93;;
28296;SDS011;62078;49.366;8.172;2022-10-16T01:54:59;2.75;;;1.05;;
28296;SDS011;62078;49.366;8.172;2022-10-16T01:57:28;3.13;;;0.77;;
28296;SDS011;62078;49.366;8.172;2022-10-16T01:59:57;2.90;;;0.90;;
28296;SDS011;62078;49.366;8.172;2022-10-16T02:02:27;1.60;;;0.63;;
28296;SDS011;62078;49.366;8.172;2022-10-16T02:04:57;1.88;;;0.70;;
28296;SDS011;62078;49.366;8.172;2022-10-16T02:07:27;2.33;;;0.60;;
28296;SDS011;62078;49.366;8.172;2022-10-16T02:09:53;2.20;;;0.68;;
28296;SDS011;62078;49.366;8.172;2022-10-16T02:12:30;2.08;;;0.75;;
28296;SDS011;62078;49.366;8.172;2022-10-16T02:14:59;3.22;;;0.60;;
28296;SDS011;62078;49.366;8.172;2022-10-16T02:17:24;4.88;;;0.82;;
28296;SDS011;62078;49.366;8.172;2022-10-16T02:19:51;3.05;;;0.60;;
28296;SDS011;62078;49.366;8.172;2022-10-16T02:22:26;2.03;;;0.70;;
28296;SDS011;62078;49.366;8.172;2022-10-16T02:25:02;4.00;;;0.80;;
28296;SDS011;62078;49.366;8.172;2022-10-16T02:27:34;2.13;;;1.05;;
28296;SDS011;62078;49.366;8.172;2022-10-16T02:30:24;2.15;;;0.70;;
28296;SDS011;62078;49.366;8.172;2022-10-16T02:33:13;5.15;;;0.95;;
28296;SDS011;62078;49.366;8.172;2022-10-16T02:35:41;1.90;;;0.65;;
28296;SDS011;62078;49.366;8.172;2022-10-16T02:38:08;3.65;;;0.77;;
28296;SDS011;62078;49.366;8.172;2022-10-16T02:40:34;2.67;;;0.70;;
28296;SDS011;62078;49.366;8.172;2022-10-16T02:43:02;10.95;;;1.67;;
28296;SDS011;62078;49.366;8.172;2022-10-16T02:45:30;4.00;;;0.88;;
28296;SDS011;62078;49.366;8.172;2022-10-16T02:47:56;3.35;;;0.60;;
28296;SDS011;62078;49.366;8.172;2022-10-16T02:50:21;2.75;;;0.70;;
28296;SDS011;62078;49.366;8.172;2022-10-16T02:52:47;5.68;;;1.05;;
28296;SDS011;62078;49.366;8.172;2022-10-16T02:55:13;3.55;;;0.70;;
28296;SDS011;62078;49.366;8.172;2022-10-16T02:57:39;1.98;;;0.60;;
28296;SDS011;62078;49.366;8.172;2022-10-16T03:00:06;4.45;;;1.05;;
28296;SDS011;62078;49.366;8.172;2022-10-16T03:02:33;1.88;;;0.70;;
28296;SDS011;62078;49.366;8.172;2022-10-16T03:04:59;3.88;;;0.95;;
28296;SDS011;62078;49.366;8.172;2022-10-16T03:07:25;2.72;;;0.70;;
28296;SDS011;62078;49.366;8.172;2022-10-16T03:09:50;3.38;;;0.80;;
28296;SDS011;62078;49.366;8.172;2022-10-16T03:12:16;4.60;;;1.00;;
28296;SDS011;62078;49.366;8.172;2022-10-16T03:14:41;4.65;;;0.80;;
28296;SDS011;62078;49.366;8.172;2022-10-16T03:17:07;2.55;;;0.80;;
28296;SDS011;62078;49.366;8.172;2022-10-16T03:19:33;2.92;;;0.90;;
28296;SDS011;62078;49.366;8.172;2022-10-16T03:21:59;2.53;;;0.90;;
28296;SDS011;62078;49.366;8.172;2022-10-16T03:24:25;2.83;;;0.73;;
28296;SDS011;62078;49.366;8.172;2022-10-16T03:26:50;2.08;;;0.68;;
28296;SDS011;62078;49.366;8.172;2022-10-16T03:29:16;2.35;;;0.75;;
28296;SDS011;62078;49.366;8.172;2022-10-16T03:31:42;4.30;;;0.90;;
28296;SDS011;62078;49.366;8.172;2022-10-16T03:34:08;4.68;;;0.73;;
28296;SDS011;62078;49.366;8.172;2022-10-16T03:36:33;2.45;;;0.88;;
28296;SDS011;62078;49.366;8.172;2022-10-16T03:38:59;2.22;;;0.80;;
28296;SDS011;62078;49.366;8.172;2022-10-16T03:41:25;5.88;;;0.70;;
28296;SDS011;62078;49.366;8.172;2022-10-16T03:43:51;3.60;;;0.80;;
28296;SDS011;62078;49.366;8.172;2022-10-16T03:46:16;4.22;;;1.00;;
28296;SDS011;62078;49.366;8.172;2022-10-16T03:48:42;3.42;;;1.13;;
28296;SDS011;62078;49.366;8.172;2022-10-16T03:51:08;2.88;;;0.70;;
28296;SDS011;62078;49.366;8.172;2022-10-16T03:53:33;4.80;;;1.23;;
28296;SDS011;62078;49.366;8.172;2022-10-16T03:55:59;2.75;;;0.95;;
28296;SDS011;62078;49.366;8.172;2022-10-16T03:58:25;2.80;;;0.73;;
28296;SDS011;62078;49.366;8.172;2022-10-16T04:00:50;2.75;;;0.80;;
28296;SDS011;62078;49.366;8.172;2022-10-16T04:03:17;3.78;;;1.08;;
28296;SDS011;62078;49.366;8.172;2022-10-16T04:05:44;3.25;;;0.75;;
28296;SDS011;62078;49.366;8.172;2022-10-16T04:08:09;3.10;;;0.90;;
28296;SDS011;62078;49.366;8.172;2022-10-16T04:10:35;2.25;;;0.70;;
28296;SDS011;62078;49.366;8.172;2022-10-16T04:13:01;3.65;;;0.98;;
28296;SDS011;62078;49.366;8.172;2022-10-16T04:15:26;4.50;;;1.30;;
28296;SDS011;62078;49.366;8.172;2022-10-16T04:17:52;3.83;;;0.73;;
28296;SDS011;62078;49.366;8.172;2022-10-16T04:20:18;2.10;;;0.73;;
28296;SDS011;62078;49.366;8.172;2022-10-16T04:22:44;3.30;;;0.80;;
28296;SDS011;62078;49.366;8.172;2022-10-16T04:25:10;2.72;;;0.70;;
28296;SDS011;62078;49.366;8.172;2022-10-16T04:27:37;2.17;;;0.77;;
28296;SDS011;62078;49.366;8.172;2022-10-16T04:30:03;2.90;;;0.98;;
28296;SDS011;62078;49.366;8.172;2022-10-16T04:32:29;2.65;;;0.80;;
28296;SDS011;62078;49.366;8.172;2022-10-16T04:34:55;3.85;;;0.80;;
28296;SDS011;62078;49.366;8.172;2022-10-16T04:37:24;3.30;;;0.77;;
28296;SDS011;62078;49.366;8.172;2022-10-16T04:39:51;1.20;;;0.60;;
28296;SDS011;62078;49.366;8.172;2022-10-16T04:42:18;2.30;;;0.70;;
28296;SDS011;62078;49.366;8.172;2022-10-16T04:44:43;2.00;;;0.77;;
28296;SDS011;62078;49.366;8.172;2022-10-16T04:47:09;3.38;;;0.77;;
28296;SDS011;62078;49.366;8.172;2022-10-16T04:49:35;3.78;;;0.82;;
28296;SDS011;62078;49.366;8.172;2022-10-16T04:52:00;4.43;;;0.95;;
28296;SDS011;62078;49.366;8.172;2022-10-16T04:54:26;2.35;;;0.80;;
28296;SDS011;62078;49.366;8.172;2022-10-16T04:56:52;2.00;;;0.52;;
28296;SDS011;62078;49.366;8.172;2022-10-16T04:59:18;2.35;;;0.60;;
28296;SDS011;62078;49.366;8.172;2022-10-16T05:01:44;4.10;;;1.00;;
28296;SDS011;62078;49.366;8.172;2022-10-16T05:04:10;3.75;;;1.00;;
28296;SDS011;62078;49.366;8.172;2022-10-16T05:06:37;1.88;;;0.63;;
28296;SDS011;62078;49.366;8.172;2022-10-16T05:09:03;2.95;;;0.85;;
28296;SDS011;62078;49.366;8.172;2022-10-16T05:11:30;3.25;;;0.88;;
28296;SDS011;62078;49.366;8.172;2022-10-16T05:13:55;2.90;;;0.60;;
28296;SDS011;62078;49.366;8.172;2022-10-16T05:16:21;2.83;;;0.60;;
28296;SDS011;62078;49.366;8.172;2022-10-16T05:18:47;2.28;;;0.60;;
28296;SDS011;62078;49.366;8.172;2022-10-16T05:21:12;2.38;;;0.70;;
28296;SDS011;62078;49.366;8.172;2022-10-16T05:23:38;3.53;;;0.70;;
28296;SDS011;62078;49.366;8.172;2022-10-16T05:26:04;3.33;;;1.15;;
28296;SDS011;62078;49.366;8.172;2022-10-16T05:28:31;2.78;;;1.00;;
28296;SDS011;62078;49.366;8.172;2022-10-16T05:30:57;2.97;;;0.70;;
28296;SDS011;62078;49.366;8.172;2022-10-16T05:33:25;2.05;;;0.70;;
28296;SDS011;62078;49.366;8.172;2022-10-16T05:35:51;2.45;;;0.70;;
28296;SDS011;62078;49.366;8.172;2022-10-16T05:38:17;2.80;;;0.70;;
28296;SDS011;62078;49.366;8.172;2022-10-16T05:40:43;2.05;;;0.57;;
28296;SDS011;62078;49.366;8.172;2022-10-16T05:43:15;2.58;;;0.85;;
28296;SDS011;62078;49.366;8.172;2022-10-16T05:45:41;2.08;;;0.68;;
28296;SDS011;62078;49.366;8.172;2022-10-16T05:48:06;1.85;;;0.90;;
28296;SDS011;62078;49.366;8.172;2022-10-16T05:50:32;8.52;;;2.83;;
28296;SDS011;62078;49.366;8.172;2022-10-16T05:52:58;9.55;;;2.80;;
28296;SDS011;62078;49.366;8.172;2022-10-16T05:55:23;9.43;;;3.60;;
28296;SDS011;62078;49.366;8.172;2022-10-16T05:57:49;8.90;;;2.50;;
28296;SDS011;62078;49.366;8.172;2022-10-16T06:00:15;9.38;;;2.92;;
28296;SDS011;62078;49.366;8.172;2022-10-16T06:02:40;10.88;;;2.40;;
28296;SDS011;62078;49.366;8.172;2022-10-16T06:05:06;6.80;;;2.00;;
28296;SDS011;62078;49.366;8.172;2022-10-16T06:07:34;3.75;;;1.52;;
28296;SDS011;62078;49.366;8.172;2022-10-16T06:10:00;4.13;;;1.35;;
28296;SDS011;62078;49.366;8.172;2022-10-16T06:12:26;3.38;;;1.20;;
28296;SDS011;62078;49.366;8.172;2022-10-16T06:14:52;3.85;;;1.00;;
28296;SDS011;62078;49.366;8.172;2022-10-16T06:17:18;7.00;;;2.22;;
28296;SDS011;62078;49.366;8.172;2022-10-16T06:19:43;3.15;;;1.25;;
28296;SDS011;62078;49.366;8.172;2022-10-16T06:22:09;5.38;;;1.38;;
28296;SDS011;62078;49.366;8.172;2022-10-16T06:24:35;3.28;;;1.38;;
28296;SDS011;62078;49.366;8.172;2022-10-16T06:27:00;4.18;;;0.95;;
28296;SDS011;62078;49.366;8.172;2022-10-16T06:29:27;2.92;;;1.13;;
28296;SDS011;62078;49.366;8.172;2022-10-16T06:31:53;4.35;;;1.35;;
28296;SDS011;62078;49.366;8.172;2022-10-16T06:34:19;6.00;;;1.50;;
28296;SDS011;62078;49.366;8.172;2022-10-16T06:36:44;10.38;;;1.73;;
28296;SDS011;62078;49.366;8.172;2022-10-16T06:39:10;11.32;;;1.85;;
28296;SDS011;62078;49.366;8.172;2022-10-16T06:41:36;6.90;;;1.98;;
28296;SDS011;62078;49.366;8.172;2022-10-16T06:44:04;12.25;;;2.22;;
28296;SDS011;62078;49.366;8.172;2022-10-16T06:46:32;8.05;;;1.40;;
28296;SDS011;62078;49.366;8.172;2022-10-16T06:48:58;7.40;;;1.08;;
28296;SDS011;62078;49.366;8.172;2022-10-16T06:51:25;4.57;;;1.27;;
28296;SDS011;62078;49.366;8.172;2022-10-16T06:53:52;6.88;;;1.50;;
28296;SDS011;62078;49.366;8.172;2022-10-16T06:56:23;10.18;;;2.17;;
28296;SDS011;62078;49.366;8.172;2022-10-16T06:58:50;8.93;;;1.23;;
28296;SDS011;62078;49.366;8.172;2022-10-16T07:01:17;5.03;;;1.63;;
28296;SDS011;62078;49.366;8.172;2022-10-16T07:03:45;4.97;;;1.30;;
28296;SDS011;62078;49.366;8.172;2022-10-16T07:06:12;5.40;;;1.75;;
28296;SDS011;62078;49.366;8.172;2022-10-16T07:08:40;5.43;;;1.40;;
28296;SDS011;62078;49.366;8.172;2022-10-16T07:11:08;9.23;;;1.73;;
28296;SDS011;62078;49.366;8.172;2022-10-16T07:13:36;6.25;;;1.75;;
28296;SDS011;62078;49.366;8.172;2022-10-16T07:16:13;6.70;;;1.50;;
28296;SDS011;62078;49.366;8.172;2022-10-16T07:18:40;5.07;;;1.60;;
28296;SDS011;62078;49.366;8.172;2022-10-16T07:21:08;6.45;;;1.52;;
28296;SDS011;62078;49.366;8.172;2022-10-16T07:23:36;7.20;;;1.23;;
28296;SDS011;62078;49.366;8.172;2022-10-16T07:26:03;6.47;;;1.65;;
28296;SDS011;62078;49.366;8.172;2022-10-16T07:28:29;4.10;;;1.17;;
28296;SDS011;62078;49.366;8.172;2022-10-16T07:30:59;7.45;;;1.77;;
28296;SDS011;62078;49.366;8.172;2022-10-16T07:33:29;3.70;;;1.20;;
28296;SDS011;62078;49.366;8.172;2022-10-16T14:54:18;6.18;;;1.45;;
28296;SDS011;62078;49.366;8.172;2022-10-16T14:59:35;5.10;;;1.58;;
28296;SDS011;62078;49.366;8.172;2022-10-16T15:01:59;5.22;;;2.17;;
28296;SDS011;62078;49.366;8.172;2022-10-16T15:04:31;4.90;;;2.22;;
28296;SDS011;62078;49.366;8.172;2022-10-16T15:06:57;5.10;;;1.85;;
28296;SDS011;62078;49.366;8.172;2022-10-16T15:09:23;3.70;;;1.70;;
28296;SDS011;62078;49.366;8.172;2022-10-16T15:11:48;4.18;;;1.23;;
28296;SDS011;62078;49.366;8.172;2022-10-16T15:14:14;3.05;;;1.50;;
28296;SDS011;62078;49.366;8.172;2022-10-16T15:16:40;5.07;;;1.48;;
28296;SDS011;62078;49.366;8.172;2022-10-16T15:19:05;4.05;;;1.20;;
28296;SDS011;62078;49.366;8.172;2022-10-16T15:21:32;5.85;;;2.00;;
28296;SDS011;62078;49.366;8.172;2022-10-16T15:23:58;6.10;;;1.80;;
28296;SDS011;62078;49.366;8.172;2022-10-16T15:26:25;3.70;;;1.52;;
28296;SDS011;62078;49.366;8.172;2022-10-16T15:28:52;2.78;;;1.52;;
28296;SDS011;62078;49.366;8.172;2022-10-16T15:31:18;2.60;;;1.45;;
28296;SDS011;62078;49.366;8.172;2022-10-16T15:33:44;3.47;;;1.67;;
28296;SDS011;62078;49.366;8.172;2022-10-16T15:36:16;4.15;;;1.50;;
28296;SDS011;62078;49.366;8.172;2022-10-16T15:38:42;3.53;;;1.45;;
28296;SDS011;62078;49.366;8.172;2022-10-16T15:41:07;4.30;;;1.60;;
28296;SDS011;62078;49.366;8.172;2022-10-16T15:43:33;2.70;;;1.45;;
28296;SDS011;62078;49.366;8.172;2022-10-16T15:46:00;4.70;;;1.50;;
28296;SDS011;62078;49.366;8.172;2022-10-16T15:48:31;2.20;;;1.17;;
28296;SDS011;62078;49.366;8.172;2022-10-16T15:50:57;2.33;;;1.20;;
28296;SDS011;62078;49.366;8.172;2022-10-16T15:53:24;4.00;;;1.70;;
28296;SDS011;62078;49.366;8.172;2022-10-16T15:55:50;2.58;;;1.17;;
28296;SDS011;62078;49.366;8.172;2022-10-16T15:58:16;2.85;;;1.55;;
28296;SDS011;62078;49.366;8.172;2022-10-16T16:00:42;3.22;;;1.40;;
28296;SDS011;62078;49.366;8.172;2022-10-16T16:03:08;3.75;;;1.30;;
28296;SDS011;62078;49.366;8.172;2022-10-16T16:05:36;2.67;;;1.30;;
28296;SDS011;62078;49.366;8.172;2022-10-16T16:08:03;3.65;;;1.40;;
28296;SDS011;62078;49.366;8.172;2022-10-16T16:10:29;2.33;;;1.30;;
28296;SDS011;62078;49.366;8.172;2022-10-16T16:12:54;3.13;;;1.30;;
28296;SDS011;62078;49.366;8.172;2022-10-16T16:15:20;5.20;;;1.45;;
28296;SDS011;62078;49.366;8.172;2022-10-16T16:17:47;2.78;;;1.67;;
28296;SDS011;62078;49.366;8.172;2022-10-16T16:20:13;2.55;;;1.30;;
28296;SDS011;62078;49.366;8.172;2022-10-16T16:22:39;2.40;;;1.33;;
28296;SDS011;62078;49.366;8.172;2022-10-16T16:25:05;2.80;;;1.40;;
28296;SDS011;62078;49.366;8.172;2022-10-16T16:27:31;4.40;;;1.08;;
28296;SDS011;62078;49.366;8.172;2022-10-16T16:29:59;2.47;;;1.20;;
28296;SDS011;62078;49.366;8.172;2022-10-16T16:32:28;2.40;;;1.27;;
28296;SDS011;62078;49.366;8.172;2022-10-16T16:34:54;1.92;;;1.10;;
28296;SDS011;62078;49.366;8.172;2022-10-16T16:37:20;3.97;;;1.70;;
28296;SDS011;62078;49.366;8.172;2022-10-16T16:39:46;2.63;;;1.13;;
28296;SDS011;62078;49.366;8.172;2022-10-16T16:42:11;2.75;;;1.30;;
28296;SDS011;62078;49.366;8.172;2022-10-16T16:44:37;2.40;;;1.50;;
28296;SDS011;62078;49.366;8.172;2022-10-16T16:47:03;2.20;;;1.15;;
28296;SDS011;62078;49.366;8.172;2022-10-16T16:49:30;3.35;;;1.40;;
28296;SDS011;62078;49.366;8.172;2022-10-16T16:51:57;2.90;;;1.52;;
28296;SDS011;62078;49.366;8.172;2022-10-16T16:54:23;3.90;;;1.38;;
28296;SDS011;62078;49.366;8.172;2022-10-16T16:56:49;3.45;;;1.40;;
28296;SDS011;62078;49.366;8.172;2022-10-16T16:59:16;3.58;;;1.30;;
28296;SDS011;62078;49.366;8.172;2022-10-16T17:01:44;2.10;;;1.05;;
28296;SDS011;62078;49.366;8.172;2022-10-16T17:04:10;3.85;;;1.73;;
28296;SDS011;62078;49.366;8.172;2022-10-16T17:06:37;4.75;;;1.40;;
28296;SDS011;62078;49.366;8.172;2022-10-16T17:09:04;4.85;;;1.50;;
28296;SDS011;62078;49.366;8.172;2022-10-16T17:11:30;5.93;;;1.63;;
28296;SDS011;62078;49.366;8.172;2022-10-16T17:13:57;5.43;;;1.70;;
28296;SDS011;62078;49.366;8.172;2022-10-16T17:16:25;5.80;;;1.80;;
28296;SDS011;62078;49.366;8.172;2022-10-16T17:18:54;13.68;;;4.32;;
28296;SDS011;62078;49.366;8.172;2022-10-16T17:21:20;17.38;;;5.18;;
28296;SDS011;62078;49.366;8.172;2022-10-16T17:23:45;15.07;;;5.03;;
28296;SDS011;62078;49.366;8.172;2022-10-16T17:26:12;10.98;;;3.33;;
28296;SDS011;62078;49.366;8.172;2022-10-16T17:28:39;10.15;;;2.55;;
28296;SDS011;62078;49.366;8.172;2022-10-16T17:31:16;7.90;;;3.15;;
28296;SDS011;62078;49.366;8.172;2022-10-16T17:33:44;9.25;;;2.97;;
28296;SDS011;62078;49.366;8.172;2022-10-16T17:36:11;11.05;;;2.80;;
28296;SDS011;62078;49.366;8.172;2022-10-16T17:38:40;8.10;;;2.80;;
28296;SDS011;62078;49.366;8.172;2022-10-16T17:41:13;9.88;;;2.70;;
28296;SDS011;62078;49.366;8.172;2022-10-16T17:43:41;9.02;;;2.65;;
28296;SDS011;62078;49.366;8.172;2022-10-16T17:46:08;8.45;;;2.85;;
28296;SDS011;62078;49.366;8.172;2022-10-16T17:48:38;13.73;;;3.20;;
28296;SDS011;62078;49.366;8.172;2022-10-16T17:51:05;7.78;;;2.33;;
28296;SDS011;62078;49.366;8.172;2022-10-16T17:53:32;8.18;;;2.65;;
28296;SDS011;62078;49.366;8.172;2022-10-16T17:56:04;8.95;;;2.53;;
28296;SDS011;62078;49.366;8.172;2022-10-16T17:58:32;7.63;;;2.13;;
28296;SDS011;62078;49.366;8.172;2022-10-16T18:00:58;6.47;;;2.30;;
28296;SDS011;62078;49.366;8.172;2022-10-16T18:03:25;7.57;;;2.28;;
28296;SDS011;62078;49.366;8.172;2022-10-16T18:05:54;10.60;;;2.45;;
28296;SDS011;62078;49.366;8.172;2022-10-16T18:08:20;10.95;;;2.20;;
28296;SDS011;62078;49.366;8.172;2022-10-16T18:10:48;7.93;;;2.53;;
28296;SDS011;62078;49.366;8.172;2022-10-16T18:13:15;6.88;;;2.40;;
28296;SDS011;62078;49.366;8.172;2022-10-16T18:15:41;7.88;;;2.30;;
28296;SDS011;62078;49.366;8.172;2022-10-16T18:18:08;6.65;;;2.10;;
28296;SDS011;62078;49.366;8.172;2022-10-16T18:20:33;8.90;;;2.67;;
28296;SDS011;62078;49.366;8.172;2022-10-16T18:22:59;6.47;;;2.75;;
28296;SDS011;62078;49.366;8.172;2022-10-16T18:25:25;8.43;;;2.15;;
28296;SDS011;62078;49.366;8.172;2022-10-16T18:27:51;7.68;;;2.30;;
28296;SDS011;62078;49.366;8.172;2022-10-16T18:30:17;7.72;;;2.42;;
28296;SDS011;62078;49.366;8.172;2022-10-16T18:32:42;6.95;;;2.20;;
28296;SDS011;62078;49.366;8.172;2022-10-16T18:35:08;6.40;;;2.50;;
28296;SDS011;62078;49.366;8.172;2022-10-16T18:37:34;9.45;;;2.50;;
28296;SDS011;62078;49.366;8.172;2022-10-16T18:40:00;6.85;;;2.50;;
28296;SDS011;62078;49.366;8.172;2022-10-16T18:42:26;6.85;;;2.35;;
28296;SDS011;62078;49.366;8.172;2022-10-16T18:44:52;3.92;;;2.00;;
28296;SDS011;62078;49.366;8.172;2022-10-16T18:47:17;5.53;;;2.33;;
28296;SDS011;62078;49.366;8.172;2022-10-16T18:49:43;7.18;;;1.92;;
28296;SDS011;62078;49.366;8.172;2022-10-16T18:52:10;6.35;;;2.00;;
28296;SDS011;62078;49.366;8.172;2022-10-16T18:54:36;5.00;;;2.08;;
28296;SDS011;62078;49.366;8.172;2022-10-16T18:57:02;10.38;;;2.35;;
28296;SDS011;62078;49.366;8.172;2022-10-16T18:59:28;8.85;;;2.35;;
28296;SDS011;62078;49.366;8.172;2022-10-16T19:01:54;11.57;;;1.98;;
28296;SDS011;62078;49.366;8.172;2022-10-16T19:04:21;9.65;;;1.90;;
28296;SDS011;62078;49.366;8.172;2022-10-16T19:06:48;8.40;;;2.20;;
28296;SDS011;62078;49.366;8.172;2022-10-16T19:09:19;10.20;;;2.53;;
28296;SDS011;62078;49.366;8.172;2022-10-16T19:11:46;11.82;;;1.80;;
28296;SDS011;62078;49.366;8.172;2022-10-16T19:14:13;15.05;;;2.17;;
28296;SDS011;62078;49.366;8.172;2022-10-16T19:16:40;8.80;;;2.00;;
28296;SDS011;62078;49.366;8.172;2022-10-16T19:19:10;9.25;;;2.30;;
28296;SDS011;62078;49.366;8.172;2022-10-16T19:21:38;6.65;;;2.53;;
28296;SDS011;62078;49.366;8.172;2022-10-16T19:24:04;6.43;;;1.90;;
28296;SDS011;62078;49.366;8.172;2022-10-16T19:26:31;8.50;;;2.13;;
28296;SDS011;62078;49.366;8.172;2022-10-16T19:28:58;7.20;;;1.77;;
28296;SDS011;62078;49.366;8.172;2022-10-16T19:31:26;8.85;;;2.38;;
28296;SDS011;62078;49.366;8.172;2022-10-16T19:33:54;6.10;;;2.40;;
28296;SDS011;62078;49.366;8.172;2022-10-16T19:36:25;9.88;;;2.00;;
28296;SDS011;62078;49.366;8.172;2022-10-16T19:38:53;5.30;;;1.98;;
28296;SDS011;62078;49.366;8.172;2022-10-16T19:41:22;4.88;;;2.00;;
28296;SDS011;62078;49.366;8.172;2022-10-16T19:43:49;10.20;;;2.20;;
28296;SDS011;62078;49.366;8.172;2022-10-16T19:46:16;6.85;;;2.25;;
28296;SDS011;62078;49.366;8.172;2022-10-16T19:48:47;9.20;;;2.70;;
28296;SDS011;62078;49.366;8.172;2022-10-16T19:51:16;7.75;;;2.47;;
28296;SDS011;62078;49.366;8.172;2022-10-16T19:53:43;8.40;;;2.13;;
28296;SDS011;62078;49.366;8.172;2022-10-16T19:56:14;8.13;;;2.00;;
28296;SDS011;62078;49.366;8.172;2022-10-16T19:58:42;9.13;;;2.10;;
28296;SDS011;62078;49.366;8.172;2022-10-16T20:01:09;9.75;;;1.98;;
28296;SDS011;62078;49.366;8.172;2022-10-16T20:03:35;11.73;;;2.53;;
28296;SDS011;62078;49.366;8.172;2022-10-16T20:06:04;4.47;;;1.67;;
28296;SDS011;62078;49.366;8.172;2022-10-16T20:08:33;5.68;;;2.03;;
28296;SDS011;62078;49.366;8.172;2022-10-16T20:11:03;6.18;;;2.13;;
28296;SDS011;62078;49.366;8.172;2022-10-16T20:13:30;5.93;;;1.80;;
28296;SDS011;62078;49.366;8.172;2022-10-16T20:15:57;6.78;;;1.95;;
28296;SDS011;62078;49.366;8.172;2022-10-16T20:18:23;8.48;;;2.58;;
28296;SDS011;62078;49.366;8.172;2022-10-16T20:20:49;5.00;;;1.80;;
28296;SDS011;62078;49.366;8.172;2022-10-16T20:23:19;7.20;;;1.88;;
28296;SDS011;62078;49.366;8.172;2022-10-16T20:25:47;7.95;;;1.98;;
28296;SDS011;62078;49.366;8.172;2022-10-16T20:28:15;5.97;;;1.70;;
28296;SDS011;62078;49.366;8.172;2022-10-16T20:30:44;5.30;;;1.65;;
28296;SDS011;62078;49.366;8.172;2022-10-16T20:33:12;8.75;;;2.28;;
28296;SDS011;62078;49.366;8.172;2022-10-16T20:35:40;5.00;;;1.73;;
28296;SDS011;62078;49.366;8.172;2022-10-16T20:38:08;7.13;;;2.00;;
28296;SDS011;62078;49.366;8.172;2022-10-16T20:40:38;6.53;;;2.00;;
28296;SDS011;62078;49.366;8.172;2022-10-16T20:43:06;4.97;;;2.10;;
28296;SDS011;62078;49.366;8.172;2022-10-16T20:45:32;6.75;;;1.70;;
28296;SDS011;62078;49.366;8.172;2022-10-16T20:47:58;11.85;;;2.20;;
28296;SDS011;62078;49.366;8.172;2022-10-16T20:50:27;5.50;;;1.77;;
28296;SDS011;62078;49.366;8.172;2022-10-16T20:52:54;5.40;;;1.90;;
28296;SDS011;62078;49.366;8.172;2022-10-16T20:55:20;11.10;;;2.08;;
28296;SDS011;62078;49.366;8.172;2022-10-16T20:57:46;6.93;;;2.10;;
28296;SDS011;62078;49.366;8.172;2022-10-16T21:00:12;7.03;;;1.73;;
28296;SDS011;62078;49.366;8.172;2022-10-16T21:02:38;6.88;;;2.13;;
28296;SDS011;62078;49.366;8.172;2022-10-16T21:05:04;5.90;;;1.90;;
28296;SDS011;62078;49.366;8.172;2022-10-16T21:07:30;7.82;;;2.13;;
28296;SDS011;62078;49.366;8.172;2022-10-16T21:09:57;8.18;;;2.13;;
28296;SDS011;62078;49.366;8.172;2022-10-16T21:12:23;9.18;;;1.95;;
28296;SDS011;62078;49.366;8.172;2022-10-16T21:14:50;7.97;;;2.13;;
28296;SDS011;62078;49.366;8.172;2022-10-16T21:17:16;5.85;;;2.42;;
28296;SDS011;62078;49.366;8.172;2022-10-16T21:19:43;6.65;;;2.03;;
28296;SDS011;62078;49.366;8.172;2022-10-16T21:22:09;9.95;;;2.15;;
28296;SDS011;62078;49.366;8.172;2022-10-16T21:24:35;12.40;;;2.50;;
28296;SDS011;62078;49.366;8.172;2022-10-16T21:27:03;8.40;;;2.00;;
28296;SDS011;62078;49.366;8.172;2022-10-16T21:29:30;8.48;;;2.45;;
28296;SDS011;62078;49.366;8.172;2022-10-16T21:31:56;11.05;;;2.50;;
28296;SDS011;62078;49.366;8.172;2022-10-16T21:34:22;5.85;;;2.30;;
28296;SDS011;62078;49.366;8.172;2022-10-16T21:36:48;8.80;;;2.13;;
28296;SDS011;62078;49.366;8.172;2022-10-16T21:39:16;10.43;;;2.38;;
28296;SDS011;62078;49.366;8.172;2022-10-16T21:41:44;8.48;;;2.00;;
28296;SDS011;62078;49.366;8.172;2022-10-16T21:44:11;9.50;;;2.25;;
28296;SDS011;62078;49.366;8.172;2022-10-16T21:46:38;11.45;;;2.58;;
28296;SDS011;62078;49.366;8.172;2022-10-16T21:49:06;11.43;;;2.25;;
28296;SDS011;62078;49.366;8.172;2022-10-16T21:51:37;9.80;;;2.60;;
28296;SDS011;62078;49.366;8.172;2022-10-16T21:54:06;13.05;;;2.30;;
28296;SDS011;62078;49.366;8.172;2022-10-16T21:56:34;6.28;;;2.33;;
28296;SDS011;62078;49.366;8.172;2022-10-16T21:59:00;6.57;;;1.98;;
28296;SDS011;62078;49.366;8.172;2022-10-16T22:01:26;5.28;;;1.95;;
28296;SDS011;62078;49.366;8.172;2022-10-16T22:03:53;9.35;;;2.33;;
28296;SDS011;62078;49.366;8.172;2022-10-16T22:06:20;6.28;;;2.15;;
28296;SDS011;62078;49.366;8.172;2022-10-16T22:08:49;8.57;;;2.13;;
28296;SDS011;62078;49.366;8.172;2022-10-16T22:11:21;7.70;;;2.47;;
28296;SDS011;62078;49.366;8.172;2022-10-16T22:13:49;12.88;;;2.80;;
28296;SDS011;62078;49.366;8.172;2022-10-16T22:16:18;6.57;;;2.00;;
28296;SDS011;62078;49.366;8.172;2022-10-16T22:18:45;10.00;;;2.67;;